Aviation Digital Data Service (ADDS)

Output produced by METARs form (2123 UTC 24 March 2019)
found at http://www.aviationweather.gov/metar/data/
 
LUKK 242100Z 34003KT CAVOK 06/M03 Q1016 R26/D NOSIG
TAF LUKK 241720Z 2418/2518 25008KT 9999 SCT035 
     TEMPO 2512/2518 32015G25KT SCT030CB